createdAt,value
2018-06-30T00:01:45.841Z,22.40
2018-06-30T00:04:13.941Z,23.00
2018-06-30T00:06:42.017Z,22.90
2018-06-30T00:09:10.127Z,22.33
2018-06-30T00:11:38.204Z,22.40
2018-06-30T00:14:06.315Z,21.00
2018-06-30T00:16:34.407Z,22.17
2018-06-30T00:19:02.509Z,21.97
2018-06-30T00:21:30.592Z,22.27
2018-06-30T00:23:58.736Z,22.43
2018-06-30T00:26:26.842Z,21.97
2018-06-30T00:28:54.968Z,23.00
2018-06-30T00:31:23.072Z,22.70
2018-06-30T00:33:51.192Z,21.97
2018-06-30T00:36:19.303Z,22.10
2018-06-30T00:38:47.424Z,19.13
2018-06-30T00:41:15.530Z,20.93
2018-06-30T00:43:43.649Z,19.87
2018-06-30T00:46:11.765Z,20.73
2018-06-30T00:48:39.998Z,21.47
2018-06-30T00:51:08.000Z,21.20
2018-06-30T00:53:36.116Z,20.23
2018-06-30T00:56:04.215Z,19.80
2018-06-30T00:58:32.340Z,19.67
2018-06-30T01:01:00.444Z,19.20
2018-06-30T01:03:28.558Z,20.63
2018-06-30T01:05:56.656Z,20.70
2018-06-30T01:08:24.799Z,18.60
2018-06-30T01:10:52.895Z,21.23
2018-06-30T01:13:21.008Z,19.10
2018-06-30T01:15:49.117Z,20.07
2018-06-30T01:18:17.253Z,19.00
2018-06-30T01:20:45.351Z,18.80
2018-06-30T01:23:13.693Z,19.93
2018-06-30T01:25:41.789Z,17.67
2018-06-30T01:28:09.911Z,18.70
2018-06-30T01:30:38.000Z,17.80
2018-06-30T01:33:06.103Z,19.13
2018-06-30T01:35:34.217Z,19.10
2018-06-30T01:38:02.329Z,18.80
2018-06-30T01:40:30.469Z,18.87
2018-06-30T01:42:58.575Z,18.87
2018-06-30T01:45:26.684Z,20.97
2018-06-30T01:47:54.771Z,19.60
2018-06-30T01:50:22.879Z,19.23
2018-06-30T01:52:50.980Z,19.37
2018-06-30T01:55:19.092Z,20.00
2018-06-30T01:57:47.184Z,20.13
2018-06-30T02:00:15.325Z,19.53
2018-06-30T02:02:43.412Z,20.17
2018-06-30T02:05:11.531Z,18.60
2018-06-30T02:07:39.623Z,18.90
2018-06-30T02:10:07.732Z,18.60
2018-06-30T02:12:35.864Z,19.80
2018-06-30T02:15:04.507Z,20.60
2018-06-30T02:17:32.610Z,19.80
2018-06-30T02:20:00.755Z,21.40
2018-06-30T02:22:28.856Z,19.77
2018-06-30T02:24:56.968Z,21.10
2018-06-30T02:27:25.121Z,19.80
2018-06-30T02:29:53.240Z,19.57
2018-06-30T02:32:21.352Z,20.87
2018-06-30T02:34:49.477Z,19.97
2018-06-30T02:37:17.584Z,18.50
2018-06-30T02:39:46.008Z,21.03
2018-06-30T02:42:14.148Z,19.30
2018-06-30T02:44:42.277Z,18.93
2018-06-30T02:47:10.368Z,19.43
2018-06-30T02:49:38.473Z,17.90
2018-06-30T02:52:06.579Z,19.57
2018-06-30T02:54:34.736Z,18.33
2018-06-30T02:57:02.896Z,19.07
2018-06-30T02:59:31.071Z,19.60
2018-06-30T03:01:59.180Z,17.40
2018-06-30T03:04:27.326Z,17.80
2018-06-30T03:06:55.424Z,18.87
2018-06-30T03:09:23.536Z,16.23
2018-06-30T03:11:51.950Z,17.87
2018-06-30T03:14:20.084Z,16.83
2018-06-30T03:16:48.192Z,17.43
2018-06-30T03:19:16.284Z,17.93
2018-06-30T03:21:44.419Z,16.67
2018-06-30T03:24:12.551Z,17.20
2018-06-30T03:26:40.672Z,17.47
2018-06-30T03:29:08.784Z,16.97
2018-06-30T03:31:37.023Z,18.33
2018-06-30T03:34:05.076Z,18.10
2018-06-30T03:36:33.200Z,19.40
2018-06-30T03:39:02.147Z,17.70
2018-06-30T03:41:30.292Z,19.83
2018-06-30T03:43:58.416Z,20.33
2018-06-30T03:46:26.524Z,20.23
2018-06-30T03:48:54.616Z,21.03
2018-06-30T03:51:22.737Z,19.10
2018-06-30T03:53:50.833Z,20.33
2018-06-30T03:56:18.967Z,19.27
2018-06-30T03:58:47.075Z,19.37
2018-06-30T04:01:15.205Z,18.53
2018-06-30T04:03:43.324Z,18.23
2018-06-30T04:06:11.431Z,18.03
2018-06-30T04:08:39.532Z,17.83
2018-06-30T04:11:07.650Z,15.97
2018-06-30T04:13:35.748Z,16.37
2018-06-30T04:16:03.872Z,15.07
2018-06-30T04:18:31.959Z,14.87
2018-06-30T04:21:00.069Z,13.37
2018-06-30T04:23:28.172Z,11.20
2018-06-30T04:25:56.282Z,10.73
2018-06-30T04:28:24.378Z,10.60
2018-06-30T04:30:52.484Z,9.80
2018-06-30T04:33:20.575Z,9.30
2018-06-30T04:35:48.684Z,10.00
2018-06-30T04:38:16.793Z,9.97
2018-06-30T04:40:44.901Z,10.00
2018-06-30T04:43:13.017Z,10.00
2018-06-30T04:45:41.128Z,10.00
2018-06-30T04:48:09.371Z,8.93
2018-06-30T04:50:37.508Z,9.90
2018-06-30T04:53:05.688Z,9.37
2018-06-30T04:55:33.796Z,9.10
2018-06-30T04:58:01.926Z,9.93
2018-06-30T05:00:30.052Z,9.77
2018-06-30T05:02:58.156Z,9.87
2018-06-30T05:05:26.254Z,9.97
2018-06-30T05:07:54.811Z,10.57
2018-06-30T05:10:22.911Z,9.50
2018-06-30T05:12:51.030Z,9.67
2018-06-30T05:15:19.128Z,10.33
2018-06-30T05:17:47.270Z,9.30
2018-06-30T05:20:15.372Z,9.80
2018-06-30T05:22:43.480Z,9.60
2018-06-30T05:25:11.584Z,9.07
2018-06-30T05:27:39.692Z,9.37
2018-06-30T05:30:07.800Z,9.20
2018-06-30T05:32:35.918Z,9.10
2018-06-30T05:35:04.029Z,8.27
2018-06-30T05:37:32.140Z,9.90
2018-06-30T05:40:00.233Z,9.53
2018-06-30T05:42:28.348Z,9.40
2018-06-30T05:44:56.444Z,9.50
2018-06-30T05:47:24.567Z,9.53
2018-06-30T05:49:52.656Z,9.50
2018-06-30T05:52:20.768Z,9.73
2018-06-30T05:54:48.861Z,8.77
2018-06-30T05:57:16.980Z,9.57
2018-06-30T05:59:45.103Z,8.57
2018-06-30T06:02:13.238Z,9.53
2018-06-30T06:04:41.338Z,10.37
2018-06-30T06:07:09.439Z,9.40
2018-06-30T06:09:37.575Z,8.93
2018-06-30T06:12:05.669Z,9.50
2018-06-30T06:14:33.764Z,9.17
2018-06-30T06:17:02.072Z,9.60
2018-06-30T06:19:30.164Z,9.53
2018-06-30T06:21:58.357Z,10.00
2018-06-30T06:24:26.460Z,9.60
2018-06-30T06:26:54.594Z,8.90
2018-06-30T06:29:22.699Z,9.40
2018-06-30T06:31:50.808Z,9.73
2018-06-30T06:34:18.904Z,9.90
2018-06-30T06:36:47.032Z,9.20
2018-06-30T06:39:15.128Z,9.53
2018-06-30T06:41:43.402Z,8.83
2018-06-30T06:44:11.452Z,8.00
2018-06-30T06:46:39.584Z,9.20
2018-06-30T06:49:07.684Z,9.13
2018-06-30T06:51:35.816Z,9.47
2018-06-30T06:54:03.936Z,9.60
2018-06-30T06:56:37.938Z,9.57
2018-06-30T06:59:07.551Z,9.73
2018-06-30T07:01:37.090Z,9.60
2018-06-30T07:04:05.228Z,8.30
2018-06-30T07:06:33.340Z,8.93
2018-06-30T07:09:01.449Z,9.03
2018-06-30T07:11:29.548Z,9.40
2018-06-30T07:13:57.651Z,9.40
2018-06-30T07:16:25.744Z,10.63
2018-06-30T07:18:53.856Z,11.30
2018-06-30T07:21:21.955Z,10.50
2018-06-30T07:23:50.064Z,11.43
2018-06-30T07:26:24.612Z,11.20
2018-06-30T07:28:52.724Z,9.90
2018-06-30T07:31:20.820Z,11.50
2018-06-30T07:33:48.949Z,12.40
2018-06-30T07:36:17.090Z,11.87
2018-06-30T07:38:45.176Z,11.53
2018-06-30T07:41:13.696Z,11.13
2018-06-30T07:43:42.365Z,11.60
2018-06-30T07:46:10.463Z,10.87
2018-06-30T07:48:38.572Z,11.33
2018-06-30T07:51:06.665Z,11.77
2018-06-30T07:53:34.775Z,11.70
2018-06-30T07:56:02.906Z,11.80
2018-06-30T07:58:31.164Z,11.30
2018-06-30T08:00:59.156Z,10.30
2018-06-30T08:03:27.272Z,10.00
2018-06-30T08:05:55.396Z,11.70
2018-06-30T08:08:23.530Z,11.53
2018-06-30T08:10:51.625Z,12.37
2018-06-30T08:13:19.752Z,11.10
2018-06-30T08:15:47.868Z,11.90
2018-06-30T08:18:15.992Z,10.97
2018-06-30T08:20:44.101Z,11.20
2018-06-30T08:23:12.230Z,10.40
2018-06-30T08:25:40.340Z,11.00
2018-06-30T08:28:08.508Z,10.70
2018-06-30T08:30:36.616Z,11.33
2018-06-30T08:33:04.835Z,11.40
2018-06-30T08:35:32.956Z,10.67
2018-06-30T08:38:01.068Z,11.00
2018-06-30T08:40:29.184Z,10.17
2018-06-30T08:42:57.308Z,11.33
2018-06-30T08:45:25.567Z,11.43
2018-06-30T08:47:53.684Z,11.17
2018-06-30T08:50:21.816Z,11.13
2018-06-30T08:52:49.929Z,12.67
2018-06-30T08:55:18.069Z,12.77
2018-06-30T08:57:46.279Z,11.60
2018-06-30T09:00:14.432Z,11.67
2018-06-30T09:02:42.528Z,10.80
2018-06-30T09:05:10.649Z,11.50
2018-06-30T09:07:38.752Z,11.37
2018-06-30T09:10:06.925Z,11.13
2018-06-30T09:12:35.033Z,11.10
2018-06-30T09:15:03.205Z,10.20
2018-06-30T09:17:31.311Z,11.50
2018-06-30T09:19:59.425Z,10.30
2018-06-30T09:22:27.536Z,10.67
2018-06-30T09:24:55.660Z,10.70
2018-06-30T09:27:23.764Z,10.97
2018-06-30T09:29:51.897Z,10.93
2018-06-30T09:32:20.005Z,10.27
2018-06-30T09:34:48.190Z,10.33
2018-06-30T09:37:16.288Z,9.10
2018-06-30T09:39:44.403Z,9.10
2018-06-30T09:42:12.497Z,9.10
2018-06-30T09:44:40.679Z,8.30
2018-06-30T09:47:08.808Z,9.23
2018-06-30T09:49:36.965Z,9.30
2018-06-30T09:52:05.069Z,10.60
2018-06-30T09:54:33.193Z,10.90
2018-06-30T09:57:01.316Z,11.23
2018-06-30T09:59:29.449Z,10.70
2018-06-30T10:01:57.552Z,12.00
2018-06-30T10:04:25.680Z,11.17
2018-06-30T10:06:53.821Z,12.17
2018-06-30T10:09:21.908Z,10.90
2018-06-30T10:11:50.029Z,11.20
2018-06-30T10:14:18.144Z,9.67
2018-06-30T10:16:46.247Z,10.80
2018-06-30T10:19:14.455Z,8.90
2018-06-30T10:21:42.496Z,9.70
2018-06-30T10:24:10.653Z,10.97
2018-06-30T10:26:39.000Z,12.07
2018-06-30T10:29:07.112Z,12.50
2018-06-30T10:31:35.217Z,13.37
2018-06-30T10:34:03.320Z,12.60
2018-06-30T10:36:31.443Z,11.57
2018-06-30T10:38:59.552Z,12.47
2018-06-30T10:41:27.675Z,11.77
2018-06-30T10:43:55.785Z,12.10
2018-06-30T10:46:23.903Z,10.30
2018-06-30T10:48:52.012Z,9.83
2018-06-30T10:51:20.208Z,9.10
2018-06-30T10:53:48.311Z,10.97
2018-06-30T10:56:16.419Z,9.97
2018-06-30T10:58:44.790Z,10.00
2018-06-30T11:01:12.924Z,7.70
2018-06-30T11:03:41.029Z,7.70
2018-06-30T11:06:09.140Z,7.93
2018-06-30T11:08:37.280Z,8.50
2018-06-30T11:11:05.542Z,8.30
2018-06-30T11:13:33.589Z,8.80
2018-06-30T11:16:01.712Z,8.17
2018-06-30T11:18:29.808Z,8.30
2018-06-30T11:20:57.972Z,8.03
2018-06-30T11:23:26.068Z,7.10
2018-06-30T11:25:54.176Z,6.90
2018-06-30T11:28:22.277Z,7.80
2018-06-30T11:30:50.383Z,9.07
2018-06-30T11:33:18.535Z,9.40
2018-06-30T11:35:46.689Z,7.83
2018-06-30T11:38:14.883Z,8.10
2018-06-30T11:40:43.041Z,8.03
2018-06-30T11:43:11.124Z,8.50
2018-06-30T11:45:39.259Z,7.30
2018-06-30T11:48:07.370Z,7.70
2018-06-30T11:50:35.480Z,8.60
2018-06-30T11:53:03.635Z,7.70
2018-06-30T11:55:31.754Z,7.20
2018-06-30T11:57:59.885Z,9.97
2018-06-30T12:00:28.021Z,12.23
2018-06-30T12:02:56.132Z,11.70
2018-06-30T12:05:24.245Z,10.90
2018-06-30T12:07:52.428Z,10.83
2018-06-30T12:10:20.534Z,10.30
2018-06-30T12:12:48.624Z,10.43
2018-06-30T12:15:16.984Z,11.23
2018-06-30T12:17:45.076Z,11.33
2018-06-30T12:20:13.172Z,11.23
2018-06-30T12:22:41.527Z,11.13
2018-06-30T12:25:09.618Z,9.93
2018-06-30T12:27:37.736Z,9.50
2018-06-30T12:30:05.832Z,8.93
2018-06-30T12:32:33.944Z,8.63
2018-06-30T12:35:02.043Z,8.23
2018-06-30T12:37:30.161Z,8.20
2018-06-30T12:39:58.247Z,8.17
2018-06-30T12:42:26.361Z,6.80
2018-06-30T12:44:54.459Z,7.87
2018-06-30T12:47:22.565Z,6.97
2018-06-30T12:49:51.033Z,6.90
2018-06-30T12:52:19.139Z,7.50
2018-06-30T12:54:47.273Z,8.03
2018-06-30T12:57:15.393Z,7.50
2018-06-30T12:59:43.601Z,6.90
2018-06-30T13:02:11.719Z,7.43
2018-06-30T13:04:39.828Z,6.60
2018-06-30T13:07:07.948Z,6.67
2018-06-30T13:09:36.088Z,6.70
2018-06-30T13:12:04.208Z,6.50
2018-06-30T13:14:32.367Z,6.40
2018-06-30T13:17:00.469Z,5.60
2018-06-30T13:19:28.568Z,5.30
2018-06-30T13:21:56.681Z,6.47
2018-06-30T13:24:24.789Z,6.47
2018-06-30T13:26:52.901Z,6.50
2018-06-30T13:29:20.997Z,7.10
2018-06-30T13:31:49.264Z,6.90
2018-06-30T13:34:17.366Z,6.73
2018-06-30T13:36:45.492Z,6.40
2018-06-30T13:39:14.800Z,6.80
2018-06-30T13:41:43.295Z,7.50
2018-06-30T13:44:11.975Z,6.90
2018-06-30T13:46:40.096Z,6.50
2018-06-30T13:49:08.288Z,7.30
2018-06-30T13:51:36.807Z,8.73
2018-06-30T13:54:05.021Z,8.40
2018-06-30T13:56:33.153Z,8.70
2018-06-30T13:59:01.280Z,8.70
2018-06-30T14:01:29.416Z,8.30
2018-06-30T14:03:57.508Z,9.00
2018-06-30T14:06:25.608Z,10.40
2018-06-30T14:08:53.730Z,8.90
2018-06-30T14:11:21.852Z,9.10
2018-06-30T14:13:49.959Z,9.30
2018-06-30T14:16:18.063Z,9.33
2018-06-30T14:18:46.164Z,9.30
2018-06-30T14:21:14.303Z,8.50
2018-06-30T14:23:42.420Z,9.43
2018-06-30T14:26:10.512Z,8.90
2018-06-30T14:28:38.689Z,9.33
2018-06-30T14:31:06.772Z,9.60
2018-06-30T14:33:34.892Z,10.50
2018-06-30T14:36:03.006Z,9.63
2018-06-30T14:38:31.118Z,10.10
2018-06-30T14:40:59.217Z,11.37
2018-06-30T14:43:27.329Z,11.00
2018-06-30T14:45:55.492Z,11.57
2018-06-30T14:48:24.467Z,10.70
2018-06-30T14:50:52.568Z,10.80
2018-06-30T14:53:20.703Z,10.03
2018-06-30T14:55:48.811Z,12.70
2018-06-30T14:58:16.927Z,13.10
2018-06-30T15:00:45.046Z,12.97
2018-06-30T15:03:13.180Z,12.33
2018-06-30T15:05:41.280Z,13.53
2018-06-30T15:08:09.392Z,14.43
2018-06-30T15:10:37.493Z,14.20
2018-06-30T15:13:05.639Z,12.67
2018-06-30T15:15:33.744Z,14.33
2018-06-30T15:18:01.876Z,14.23
2018-06-30T15:20:29.998Z,13.07
2018-06-30T15:22:58.119Z,14.53
2018-06-30T15:25:26.228Z,13.20
2018-06-30T15:27:54.356Z,13.17
2018-06-30T15:30:22.472Z,12.50
2018-06-30T15:32:50.604Z,12.60
2018-06-30T15:35:18.704Z,13.70
2018-06-30T15:37:46.852Z,13.93
2018-06-30T15:40:14.951Z,14.50
2018-06-30T15:42:43.151Z,13.77
2018-06-30T15:45:11.227Z,13.73
2018-06-30T15:47:39.645Z,13.37
2018-06-30T15:50:07.896Z,12.50
2018-06-30T15:52:36.020Z,13.57
2018-06-30T15:55:04.472Z,13.40
2018-06-30T15:57:32.577Z,14.10
2018-06-30T16:00:00.704Z,12.67
2018-06-30T16:02:28.800Z,13.60
2018-06-30T16:04:56.929Z,13.10
2018-06-30T16:07:25.044Z,12.30
2018-06-30T16:09:53.187Z,12.90
2018-06-30T16:12:21.300Z,14.53
2018-06-30T16:14:49.420Z,13.20
2018-06-30T16:17:17.537Z,14.00
2018-06-30T16:19:45.652Z,14.00
2018-06-30T16:22:13.771Z,14.70
2018-06-30T16:24:41.937Z,13.07
2018-06-30T16:27:10.040Z,13.53
2018-06-30T16:29:38.176Z,12.80
2018-06-30T16:32:06.296Z,13.13
2018-06-30T16:34:34.408Z,12.90
2018-06-30T16:37:02.516Z,12.73
2018-06-30T16:39:30.651Z,13.60
2018-06-30T16:41:59.039Z,13.83
2018-06-30T16:44:27.162Z,12.30
2018-06-30T16:46:55.332Z,13.60
2018-06-30T16:49:23.448Z,14.27
2018-06-30T16:51:51.583Z,13.83
2018-06-30T16:54:19.812Z,13.43
2018-06-30T16:56:47.904Z,12.63
2018-06-30T16:59:16.032Z,13.67
2018-06-30T17:01:44.165Z,13.33
2018-06-30T17:04:12.288Z,13.30
2018-06-30T17:06:40.388Z,13.17
2018-06-30T17:09:10.531Z,13.47
2018-06-30T17:11:38.636Z,13.47
2018-06-30T17:14:13.244Z,13.67
2018-06-30T17:16:41.353Z,13.60
2018-06-30T17:19:09.524Z,12.60
2018-06-30T17:21:37.640Z,12.33
2018-06-30T17:24:06.005Z,13.80
2018-06-30T17:26:34.153Z,13.17
2018-06-30T17:29:02.277Z,13.40
2018-06-30T17:31:30.381Z,13.17
2018-06-30T17:33:58.500Z,13.47
2018-06-30T17:36:26.604Z,12.83
2018-06-30T17:38:54.723Z,12.53
2018-06-30T17:41:22.847Z,12.50
2018-06-30T17:43:51.008Z,13.03
2018-06-30T17:46:19.149Z,12.63
2018-06-30T17:48:47.263Z,12.73
2018-06-30T17:51:15.412Z,11.80
2018-06-30T17:53:43.512Z,12.20
2018-06-30T17:56:11.654Z,11.80
2018-06-30T17:58:39.791Z,12.20
2018-06-30T18:01:07.924Z,11.87
2018-06-30T18:03:36.037Z,13.00
2018-06-30T18:06:04.172Z,12.40
2018-06-30T18:08:32.284Z,12.00
2018-06-30T18:11:00.413Z,12.17
2018-06-30T18:13:28.532Z,10.60
2018-06-30T18:15:56.723Z,10.03
2018-06-30T18:18:24.817Z,9.93
2018-06-30T18:20:52.931Z,8.33
2018-06-30T18:23:21.027Z,9.10
2018-06-30T18:25:49.148Z,7.90
2018-06-30T18:28:17.256Z,7.53
2018-06-30T18:30:45.383Z,7.60
2018-06-30T18:33:13.483Z,6.80
2018-06-30T18:35:41.597Z,5.80
2018-06-30T18:38:09.739Z,6.23
2018-06-30T18:40:37.854Z,6.63
2018-06-30T18:43:05.943Z,5.73
2018-06-30T18:45:34.188Z,4.97
2018-06-30T18:48:02.328Z,5.50
2018-06-30T18:50:30.449Z,6.10
2018-06-30T18:52:58.556Z,5.60
2018-06-30T18:55:26.677Z,5.40
2018-06-30T18:57:54.812Z,5.33
2018-06-30T19:00:22.925Z,5.30
2018-06-30T19:05:25.493Z,5.47
2018-06-30T19:07:53.585Z,4.80
2018-06-30T19:10:21.772Z,5.43
2018-06-30T19:12:50.123Z,5.47
2018-06-30T19:15:18.236Z,5.00
2018-06-30T19:17:46.356Z,5.00
2018-06-30T19:20:14.644Z,5.37
2018-06-30T19:22:42.737Z,5.17
2018-06-30T19:25:10.992Z,6.17
2018-06-30T19:27:39.099Z,5.60
2018-06-30T19:30:07.219Z,4.80
2018-06-30T19:32:35.349Z,5.23
2018-06-30T19:35:03.468Z,6.00
2018-06-30T19:37:31.589Z,5.50
2018-06-30T19:39:59.688Z,5.33
2018-06-30T19:42:27.792Z,5.97
2018-06-30T19:44:55.876Z,5.20
2018-06-30T19:47:23.988Z,5.10
2018-06-30T19:49:52.083Z,4.50
2018-06-30T19:52:20.197Z,5.37
2018-06-30T19:54:48.301Z,4.90
2018-06-30T19:57:16.428Z,5.00
2018-06-30T19:59:44.527Z,4.90
2018-06-30T20:02:12.645Z,4.90
2018-06-30T20:04:40.732Z,4.67
2018-06-30T20:07:08.844Z,4.60
2018-06-30T20:09:37.116Z,5.20
2018-06-30T20:12:05.453Z,4.50
2018-06-30T20:14:33.535Z,5.20
2018-06-30T20:17:01.747Z,5.37
2018-06-30T20:19:30.090Z,4.90
2018-06-30T20:21:58.220Z,5.57
2018-06-30T20:24:26.385Z,4.73
2018-06-30T20:26:54.652Z,5.30
2018-06-30T20:29:22.919Z,4.90
2018-06-30T20:31:51.088Z,4.07
2018-06-30T20:34:19.194Z,6.23
2018-06-30T20:36:47.458Z,5.30
2018-06-30T20:39:15.667Z,4.50
2018-06-30T20:41:43.767Z,5.10
2018-06-30T20:44:11.921Z,5.57
2018-06-30T20:46:40.080Z,5.83
2018-06-30T20:49:08.340Z,4.77
2018-06-30T20:51:36.520Z,4.30
2018-06-30T20:54:04.712Z,5.63
2018-06-30T20:56:32.901Z,4.03
2018-06-30T20:59:01.076Z,3.90
2018-06-30T21:01:29.297Z,4.30
2018-06-30T21:03:57.379Z,4.60
2018-06-30T21:06:25.508Z,4.77
2018-06-30T21:08:53.592Z,4.40
2018-06-30T21:11:21.737Z,4.63
2018-06-30T21:13:49.859Z,4.37
2018-06-30T21:16:18.009Z,5.07
2018-06-30T21:18:46.129Z,5.03
2018-06-30T21:21:14.208Z,5.37
2018-06-30T21:23:42.340Z,6.00
2018-06-30T21:26:10.441Z,5.60
2018-06-30T21:28:38.553Z,10.47
2018-06-30T21:31:06.657Z,9.17
2018-06-30T21:33:34.774Z,6.90
2018-06-30T21:36:02.885Z,6.83
2018-06-30T21:38:30.997Z,5.60
2018-06-30T21:40:59.080Z,4.10
2018-06-30T21:43:27.178Z,4.40
2018-06-30T21:45:55.281Z,4.40
2018-06-30T21:48:23.384Z,4.10
2018-06-30T21:50:51.480Z,4.67
2018-06-30T21:53:19.585Z,4.10
2018-06-30T21:55:47.678Z,4.03
2018-06-30T21:58:15.787Z,4.10
2018-06-30T22:00:49.908Z,3.70
2018-06-30T22:03:18.592Z,3.73
2018-06-30T22:05:46.709Z,4.00
2018-06-30T22:08:14.821Z,4.30
2018-06-30T22:10:43.067Z,3.47
2018-06-30T22:13:11.183Z,4.00
2018-06-30T22:15:39.293Z,4.30
2018-06-30T22:18:07.664Z,3.30
2018-06-30T22:20:36.420Z,3.43
2018-06-30T22:23:04.841Z,3.20
2018-06-30T22:25:33.411Z,3.37
2018-06-30T22:28:01.893Z,3.40
2018-06-30T22:30:30.001Z,3.63
2018-06-30T22:32:58.141Z,3.30
2018-06-30T22:35:26.256Z,3.50
2018-06-30T22:37:54.795Z,2.90
2018-06-30T22:40:22.952Z,3.60
2018-06-30T22:42:51.076Z,2.77
2018-06-30T22:45:19.164Z,2.80
2018-06-30T22:47:47.592Z,3.20
2018-06-30T22:50:16.992Z,3.60
2018-06-30T22:52:45.112Z,2.90
2018-06-30T22:55:13.464Z,2.80
2018-06-30T22:57:41.597Z,3.37
2018-06-30T23:00:11.100Z,3.13
2018-06-30T23:02:39.605Z,2.53
2018-06-30T23:05:08.274Z,3.13
2018-06-30T23:07:36.773Z,3.83
2018-06-30T23:10:04.932Z,3.47
2018-06-30T23:12:33.028Z,3.10
2018-06-30T23:15:01.470Z,3.20
2018-06-30T23:17:29.583Z,3.10
2018-06-30T23:19:57.696Z,3.70
2018-06-30T23:22:32.473Z,2.77
2018-06-30T23:25:00.594Z,3.43
2018-06-30T23:27:28.712Z,3.47
2018-06-30T23:29:56.833Z,2.90
2018-06-30T23:32:24.925Z,2.83
2018-06-30T23:34:53.150Z,3.23
2018-06-30T23:37:21.253Z,3.47
2018-06-30T23:39:49.368Z,2.97
2018-06-30T23:42:17.453Z,2.90
2018-06-30T23:44:45.560Z,3.40
2018-06-30T23:47:13.648Z,3.17
2018-06-30T23:49:41.763Z,2.63
2018-06-30T23:52:09.866Z,3.10
2018-06-30T23:54:38.005Z,2.80
2018-06-30T23:57:06.109Z,2.70
2018-06-30T23:59:34.366Z,2.60
